sensor_id;sensor_type;location;lat;lon;timestamp;P1;durP1;ratioP1;P2;durP2;ratioP2
58864;SDS011;45702;52.982;6.658;2024-03-23T00:56:14;66.75;;;11.55;;
58864;SDS011;45702;52.982;6.658;2024-03-23T00:58:40;70.25;;;12.20;;
58864;SDS011;45702;52.982;6.658;2024-03-23T01:01:06;71.20;;;11.40;;
58864;SDS011;45702;52.982;6.658;2024-03-23T01:03:32;72.38;;;11.52;;
58864;SDS011;45702;52.982;6.658;2024-03-23T01:06:01;75.72;;;11.55;;
58864;SDS011;45702;52.982;6.658;2024-03-23T01:08:28;70.32;;;11.73;;
58864;SDS011;45702;52.982;6.658;2024-03-23T01:10:57;70.20;;;11.38;;
58864;SDS011;45702;52.982;6.658;2024-03-23T01:13:24;74.43;;;11.80;;
58864;SDS011;45702;52.982;6.658;2024-03-23T01:15:50;79.22;;;11.98;;
58864;SDS011;45702;52.982;6.658;2024-03-23T01:18:19;85.30;;;11.82;;
58864;SDS011;45702;52.982;6.658;2024-03-23T01:20:46;76.30;;;11.07;;
58864;SDS011;45702;52.982;6.658;2024-03-23T01:23:12;72.13;;;11.02;;
58864;SDS011;45702;52.982;6.658;2024-03-23T01:25:38;70.35;;;11.48;;
58864;SDS011;45702;52.982;6.658;2024-03-23T01:28:04;73.93;;;11.40;;
58864;SDS011;45702;52.982;6.658;2024-03-23T01:30:34;73.53;;;10.82;;
58864;SDS011;45702;52.982;6.658;2024-03-23T01:33:01;73.88;;;11.35;;
58864;SDS011;45702;52.982;6.658;2024-03-23T01:35:27;72.35;;;11.43;;
58864;SDS011;45702;52.982;6.658;2024-03-23T01:37:53;65.50;;;10.95;;
58864;SDS011;45702;52.982;6.658;2024-03-23T01:40:20;78.82;;;10.85;;
58864;SDS011;45702;52.982;6.658;2024-03-23T01:43:04;65.60;;;10.85;;
58864;SDS011;45702;52.982;6.658;2024-03-23T01:45:31;77.93;;;11.65;;
58864;SDS011;45702;52.982;6.658;2024-03-23T01:47:58;63.92;;;11.70;;
58864;SDS011;45702;52.982;6.658;2024-03-23T01:50:24;86.53;;;11.18;;
58864;SDS011;45702;52.982;6.658;2024-03-23T01:52:50;77.05;;;11.52;;
58864;SDS011;45702;52.982;6.658;2024-03-23T01:55:16;64.80;;;11.00;;
58864;SDS011;45702;52.982;6.658;2024-03-23T01:57:42;70.47;;;10.93;;
58864;SDS011;45702;52.982;6.658;2024-03-23T02:00:08;78.68;;;11.50;;
58864;SDS011;45702;52.982;6.658;2024-03-23T02:02:40;72.13;;;11.30;;
58864;SDS011;45702;52.982;6.658;2024-03-23T02:05:06;64.20;;;10.82;;
58864;SDS011;45702;52.982;6.658;2024-03-23T02:07:33;66.53;;;10.23;;
58864;SDS011;45702;52.982;6.658;2024-03-23T02:09:59;75.65;;;11.40;;
58864;SDS011;45702;52.982;6.658;2024-03-23T02:12:26;67.85;;;10.48;;
58864;SDS011;45702;52.982;6.658;2024-03-23T02:14:52;76.43;;;10.60;;
58864;SDS011;45702;52.982;6.658;2024-03-23T02:17:18;62.17;;;10.85;;
58864;SDS011;45702;52.982;6.658;2024-03-23T02:19:44;72.78;;;11.00;;
58864;SDS011;45702;52.982;6.658;2024-03-23T02:22:11;75.63;;;10.68;;
58864;SDS011;45702;52.982;6.658;2024-03-23T02:24:37;69.05;;;11.35;;
58864;SDS011;45702;52.982;6.658;2024-03-23T02:27:04;71.55;;;10.80;;
58864;SDS011;45702;52.982;6.658;2024-03-23T02:29:30;70.70;;;11.45;;
58864;SDS011;45702;52.982;6.658;2024-03-23T02:31:56;73.22;;;10.73;;
58864;SDS011;45702;52.982;6.658;2024-03-23T02:34:23;65.10;;;11.45;;
58864;SDS011;45702;52.982;6.658;2024-03-23T02:36:50;66.13;;;10.73;;
58864;SDS011;45702;52.982;6.658;2024-03-23T02:39:16;60.53;;;10.93;;
58864;SDS011;45702;52.982;6.658;2024-03-23T02:41:42;73.80;;;12.00;;
58864;SDS011;45702;52.982;6.658;2024-03-23T02:44:08;67.32;;;10.75;;
58864;SDS011;45702;52.982;6.658;2024-03-23T02:49:02;64.68;;;10.82;;
58864;SDS011;45702;52.982;6.658;2024-03-23T02:51:29;70.78;;;11.32;;
58864;SDS011;45702;52.982;6.658;2024-03-23T02:53:55;67.10;;;11.10;;
58864;SDS011;45702;52.982;6.658;2024-03-23T02:56:21;63.72;;;10.40;;
58864;SDS011;45702;52.982;6.658;2024-03-23T02:58:48;69.22;;;11.55;;
58864;SDS011;45702;52.982;6.658;2024-03-23T03:01:14;66.13;;;10.98;;
58864;SDS011;45702;52.982;6.658;2024-03-23T03:03:40;65.68;;;10.38;;
58864;SDS011;45702;52.982;6.658;2024-03-23T03:06:06;62.47;;;9.80;;
58864;SDS011;45702;52.982;6.658;2024-03-23T03:08:32;53.42;;;10.38;;
58864;SDS011;45702;52.982;6.658;2024-03-23T03:10:58;68.43;;;11.15;;
58864;SDS011;45702;52.982;6.658;2024-03-23T03:13:24;62.67;;;10.80;;
58864;SDS011;45702;52.982;6.658;2024-03-23T03:15:50;70.78;;;11.35;;
58864;SDS011;45702;52.982;6.658;2024-03-23T03:18:16;70.47;;;10.65;;
58864;SDS011;45702;52.982;6.658;2024-03-23T03:20:42;62.97;;;10.60;;
58864;SDS011;45702;52.982;6.658;2024-03-23T03:23:09;69.45;;;10.70;;
58864;SDS011;45702;52.982;6.658;2024-03-23T03:25:35;65.28;;;10.70;;
58864;SDS011;45702;52.982;6.658;2024-03-23T03:28:01;59.80;;;10.32;;
58864;SDS011;45702;52.982;6.658;2024-03-23T03:30:27;61.97;;;10.45;;
58864;SDS011;45702;52.982;6.658;2024-03-23T03:32:53;62.05;;;10.77;;
58864;SDS011;45702;52.982;6.658;2024-03-23T03:35:20;61.65;;;11.10;;
58864;SDS011;45702;52.982;6.658;2024-03-23T03:37:46;58.47;;;10.30;;
58864;SDS011;45702;52.982;6.658;2024-03-23T03:40:12;64.10;;;10.90;;
58864;SDS011;45702;52.982;6.658;2024-03-23T03:42:40;56.40;;;10.38;;
58864;SDS011;45702;52.982;6.658;2024-03-23T03:45:06;53.15;;;10.80;;
58864;SDS011;45702;52.982;6.658;2024-03-23T03:47:32;54.80;;;10.57;;
58864;SDS011;45702;52.982;6.658;2024-03-23T03:49:58;59.53;;;10.32;;
58864;SDS011;45702;52.982;6.658;2024-03-23T03:52:24;52.00;;;10.18;;
58864;SDS011;45702;52.982;6.658;2024-03-23T03:54:51;51.70;;;9.43;;
58864;SDS011;45702;52.982;6.658;2024-03-23T03:57:17;67.25;;;10.73;;
58864;SDS011;45702;52.982;6.658;2024-03-23T03:59:44;49.42;;;10.30;;
58864;SDS011;45702;52.982;6.658;2024-03-23T04:02:10;64.93;;;10.40;;
58864;SDS011;45702;52.982;6.658;2024-03-23T04:04:36;49.97;;;9.50;;
58864;SDS011;45702;52.982;6.658;2024-03-23T04:07:02;65.63;;;10.27;;
58864;SDS011;45702;52.982;6.658;2024-03-23T04:09:30;58.67;;;10.15;;
58864;SDS011;45702;52.982;6.658;2024-03-23T04:11:56;52.88;;;9.65;;
58864;SDS011;45702;52.982;6.658;2024-03-23T04:14:22;50.80;;;9.57;;
58864;SDS011;45702;52.982;6.658;2024-03-23T04:16:48;66.97;;;10.38;;
58864;SDS011;45702;52.982;6.658;2024-03-23T04:19:14;57.17;;;10.48;;
58864;SDS011;45702;52.982;6.658;2024-03-23T04:21:42;70.05;;;10.95;;
58864;SDS011;45702;52.982;6.658;2024-03-23T04:24:08;52.05;;;9.65;;
58864;SDS011;45702;52.982;6.658;2024-03-23T04:26:43;60.17;;;10.77;;
58864;SDS011;45702;52.982;6.658;2024-03-23T04:29:09;70.00;;;9.60;;
58864;SDS011;45702;52.982;6.658;2024-03-23T04:31:35;59.78;;;9.95;;
58864;SDS011;45702;52.982;6.658;2024-03-23T04:34:01;58.78;;;9.90;;
58864;SDS011;45702;52.982;6.658;2024-03-23T04:36:27;50.88;;;9.10;;
58864;SDS011;45702;52.982;6.658;2024-03-23T04:38:53;54.83;;;9.13;;
58864;SDS011;45702;52.982;6.658;2024-03-23T04:41:19;62.35;;;9.80;;
58864;SDS011;45702;52.982;6.658;2024-03-23T04:43:45;51.53;;;9.40;;
58864;SDS011;45702;52.982;6.658;2024-03-23T04:46:11;48.25;;;9.68;;
58864;SDS011;45702;52.982;6.658;2024-03-23T04:48:37;47.83;;;9.20;;
58864;SDS011;45702;52.982;6.658;2024-03-23T04:51:03;59.17;;;9.65;;
58864;SDS011;45702;52.982;6.658;2024-03-23T04:53:29;47.58;;;8.70;;
58864;SDS011;45702;52.982;6.658;2024-03-23T04:55:56;47.78;;;9.57;;
58864;SDS011;45702;52.982;6.658;2024-03-23T04:58:22;45.05;;;9.25;;
58864;SDS011;45702;52.982;6.658;2024-03-23T05:00:52;54.40;;;9.65;;
58864;SDS011;45702;52.982;6.658;2024-03-23T05:03:19;38.78;;;8.98;;
58864;SDS011;45702;52.982;6.658;2024-03-23T05:05:46;50.53;;;8.82;;
58864;SDS011;45702;52.982;6.658;2024-03-23T05:08:12;58.28;;;10.65;;
58864;SDS011;45702;52.982;6.658;2024-03-23T05:10:39;57.55;;;8.93;;
58864;SDS011;45702;52.982;6.658;2024-03-23T05:13:05;56.22;;;9.82;;
58864;SDS011;45702;52.982;6.658;2024-03-23T05:15:31;55.28;;;8.80;;
58864;SDS011;45702;52.982;6.658;2024-03-23T05:17:58;44.13;;;8.32;;
58864;SDS011;45702;52.982;6.658;2024-03-23T05:20:24;57.63;;;8.38;;
58864;SDS011;45702;52.982;6.658;2024-03-23T05:22:50;42.25;;;8.00;;
58864;SDS011;45702;52.982;6.658;2024-03-23T05:25:16;49.33;;;8.38;;
58864;SDS011;45702;52.982;6.658;2024-03-23T05:27:42;61.72;;;9.50;;
58864;SDS011;45702;52.982;6.658;2024-03-23T05:30:08;42.13;;;8.27;;
58864;SDS011;45702;52.982;6.658;2024-03-23T05:32:35;46.70;;;8.57;;
58864;SDS011;45702;52.982;6.658;2024-03-23T05:35:03;46.88;;;7.68;;
58864;SDS011;45702;52.982;6.658;2024-03-23T05:37:29;49.05;;;7.53;;
58864;SDS011;45702;52.982;6.658;2024-03-23T05:39:58;51.85;;;8.60;;
58864;SDS011;45702;52.982;6.658;2024-03-23T05:42:24;50.33;;;7.75;;
58864;SDS011;45702;52.982;6.658;2024-03-23T05:44:51;44.45;;;7.03;;
58864;SDS011;45702;52.982;6.658;2024-03-23T05:47:17;45.40;;;6.75;;
58864;SDS011;45702;52.982;6.658;2024-03-23T05:49:45;48.92;;;7.00;;
58864;SDS011;45702;52.982;6.658;2024-03-23T05:52:11;41.65;;;7.00;;
58864;SDS011;45702;52.982;6.658;2024-03-23T05:54:37;42.90;;;7.10;;
58864;SDS011;45702;52.982;6.658;2024-03-23T05:57:03;32.67;;;6.20;;
58864;SDS011;45702;52.982;6.658;2024-03-23T05:59:32;51.38;;;7.30;;
58864;SDS011;45702;52.982;6.658;2024-03-23T06:01:58;45.75;;;6.97;;
58864;SDS011;45702;52.982;6.658;2024-03-23T06:04:24;41.40;;;6.60;;
58864;SDS011;45702;52.982;6.658;2024-03-23T06:06:51;37.25;;;6.22;;
58864;SDS011;45702;52.982;6.658;2024-03-23T06:09:17;47.05;;;7.15;;
58864;SDS011;45702;52.982;6.658;2024-03-23T06:11:44;33.28;;;5.97;;
58864;SDS011;45702;52.982;6.658;2024-03-23T06:14:10;42.50;;;6.32;;
58864;SDS011;45702;52.982;6.658;2024-03-23T06:16:36;49.63;;;6.40;;
58864;SDS011;45702;52.982;6.658;2024-03-23T06:19:02;43.88;;;6.88;;
58864;SDS011;45702;52.982;6.658;2024-03-23T06:21:31;41.47;;;7.05;;
58864;SDS011;45702;52.982;6.658;2024-03-23T06:23:57;35.97;;;6.10;;
58864;SDS011;45702;52.982;6.658;2024-03-23T06:26:23;34.83;;;5.70;;
58864;SDS011;45702;52.982;6.658;2024-03-23T06:28:50;42.85;;;6.50;;
58864;SDS011;45702;52.982;6.658;2024-03-23T06:31:16;34.20;;;5.53;;
58864;SDS011;45702;52.982;6.658;2024-03-23T06:33:42;28.15;;;4.97;;
58864;SDS011;45702;52.982;6.658;2024-03-23T06:36:11;29.38;;;5.70;;
58864;SDS011;45702;52.982;6.658;2024-03-23T06:38:37;40.17;;;6.88;;
58864;SDS011;45702;52.982;6.658;2024-03-23T06:41:04;32.83;;;5.32;;
58864;SDS011;45702;52.982;6.658;2024-03-23T06:43:30;30.85;;;5.35;;
58864;SDS011;45702;52.982;6.658;2024-03-23T06:45:56;30.45;;;4.97;;
58864;SDS011;45702;52.982;6.658;2024-03-23T06:48:22;24.73;;;4.85;;
58864;SDS011;45702;52.982;6.658;2024-03-23T06:50:48;22.20;;;4.78;;
58864;SDS011;45702;52.982;6.658;2024-03-23T06:53:14;28.38;;;4.60;;
58864;SDS011;45702;52.982;6.658;2024-03-23T06:55:41;21.48;;;3.97;;
58864;SDS011;45702;52.982;6.658;2024-03-23T06:58:07;19.67;;;4.40;;
58864;SDS011;45702;52.982;6.658;2024-03-23T07:00:35;22.15;;;4.85;;
58864;SDS011;45702;52.982;6.658;2024-03-23T07:03:01;25.00;;;4.55;;
58864;SDS011;45702;52.982;6.658;2024-03-23T07:05:28;24.33;;;4.65;;
58864;SDS011;45702;52.982;6.658;2024-03-23T07:07:54;19.35;;;4.35;;
58864;SDS011;45702;52.982;6.658;2024-03-23T07:10:20;18.15;;;4.50;;
58864;SDS011;45702;52.982;6.658;2024-03-23T07:12:46;15.10;;;3.50;;
58864;SDS011;45702;52.982;6.658;2024-03-23T07:15:12;23.60;;;4.03;;
58864;SDS011;45702;52.982;6.658;2024-03-23T07:17:38;23.10;;;4.35;;
58864;SDS011;45702;52.982;6.658;2024-03-23T07:20:05;19.20;;;4.07;;
58864;SDS011;45702;52.982;6.658;2024-03-23T07:22:35;20.30;;;3.70;;
58864;SDS011;45702;52.982;6.658;2024-03-23T07:25:01;21.15;;;4.18;;
58864;SDS011;45702;52.982;6.658;2024-03-23T07:27:28;25.58;;;4.57;;
58864;SDS011;45702;52.982;6.658;2024-03-23T07:29:54;22.70;;;5.30;;
58864;SDS011;45702;52.982;6.658;2024-03-23T07:32:21;19.73;;;5.00;;
58864;SDS011;45702;52.982;6.658;2024-03-23T07:34:47;27.60;;;5.03;;
58864;SDS011;45702;52.982;6.658;2024-03-23T07:37:13;26.45;;;5.55;;
58864;SDS011;45702;52.982;6.658;2024-03-23T07:39:39;23.58;;;5.82;;
58864;SDS011;45702;52.982;6.658;2024-03-23T07:42:06;19.13;;;5.30;;
58864;SDS011;45702;52.982;6.658;2024-03-23T07:44:32;27.48;;;6.28;;
58864;SDS011;45702;52.982;6.658;2024-03-23T07:46:58;25.83;;;5.90;;
58864;SDS011;45702;52.982;6.658;2024-03-23T07:49:24;24.63;;;6.25;;
58864;SDS011;45702;52.982;6.658;2024-03-23T07:51:50;26.77;;;5.50;;
58864;SDS011;45702;52.982;6.658;2024-03-23T07:54:17;20.52;;;5.50;;
58864;SDS011;45702;52.982;6.658;2024-03-23T07:56:43;29.50;;;6.28;;
58864;SDS011;45702;52.982;6.658;2024-03-23T07:59:09;22.15;;;5.70;;
58864;SDS011;45702;52.982;6.658;2024-03-23T08:01:36;21.13;;;5.38;;
58864;SDS011;45702;52.982;6.658;2024-03-23T08:04:02;23.90;;;5.43;;
58864;SDS011;45702;52.982;6.658;2024-03-23T08:06:28;23.88;;;5.03;;
58864;SDS011;45702;52.982;6.658;2024-03-23T08:08:54;16.33;;;4.03;;
58864;SDS011;45702;52.982;6.658;2024-03-23T08:11:27;21.27;;;4.97;;
58864;SDS011;45702;52.982;6.658;2024-03-23T08:13:54;12.60;;;3.80;;
58864;SDS011;45702;52.982;6.658;2024-03-23T08:16:20;14.40;;;3.45;;
58864;SDS011;45702;52.982;6.658;2024-03-23T08:18:47;15.23;;;3.50;;
58864;SDS011;45702;52.982;6.658;2024-03-23T08:21:13;15.23;;;3.78;;
58864;SDS011;45702;52.982;6.658;2024-03-23T08:23:39;18.27;;;4.13;;
58864;SDS011;45702;52.982;6.658;2024-03-23T08:26:15;20.00;;;4.32;;
58864;SDS011;45702;52.982;6.658;2024-03-23T08:28:42;16.20;;;4.13;;
58864;SDS011;45702;52.982;6.658;2024-03-23T08:31:11;17.75;;;4.18;;
58864;SDS011;45702;52.982;6.658;2024-03-23T08:33:37;20.83;;;5.25;;
58864;SDS011;45702;52.982;6.658;2024-03-23T08:36:08;21.35;;;4.00;;
58864;SDS011;45702;52.982;6.658;2024-03-23T08:38:35;21.02;;;4.75;;
58864;SDS011;45702;52.982;6.658;2024-03-23T08:41:02;26.15;;;5.25;;
58864;SDS011;45702;52.982;6.658;2024-03-23T08:43:28;17.63;;;4.60;;
58864;SDS011;45702;52.982;6.658;2024-03-23T08:46:03;27.70;;;5.35;;
58864;SDS011;45702;52.982;6.658;2024-03-23T08:48:30;29.00;;;5.63;;
58864;SDS011;45702;52.982;6.658;2024-03-23T08:51:03;21.30;;;4.72;;
58864;SDS011;45702;52.982;6.658;2024-03-23T08:53:29;18.80;;;4.78;;
58864;SDS011;45702;52.982;6.658;2024-03-23T08:55:56;19.70;;;4.93;;
58864;SDS011;45702;52.982;6.658;2024-03-23T08:58:23;22.27;;;4.80;;
58864;SDS011;45702;52.982;6.658;2024-03-23T09:00:50;23.50;;;5.15;;
58864;SDS011;45702;52.982;6.658;2024-03-23T09:03:16;20.98;;;4.72;;
58864;SDS011;45702;52.982;6.658;2024-03-23T09:05:42;24.90;;;5.03;;
58864;SDS011;45702;52.982;6.658;2024-03-23T09:08:08;17.33;;;4.45;;
58864;SDS011;45702;52.982;6.658;2024-03-23T09:10:41;19.63;;;5.32;;
58864;SDS011;45702;52.982;6.658;2024-03-23T09:13:07;23.55;;;5.28;;
58864;SDS011;45702;52.982;6.658;2024-03-23T09:15:34;25.30;;;5.63;;
58864;SDS011;45702;52.982;6.658;2024-03-23T09:18:00;21.13;;;4.97;;
58864;SDS011;45702;52.982;6.658;2024-03-23T09:20:26;31.02;;;4.93;;
58864;SDS011;45702;52.982;6.658;2024-03-23T09:22:52;26.40;;;5.35;;
58864;SDS011;45702;52.982;6.658;2024-03-23T09:25:19;24.13;;;6.10;;
58864;SDS011;45702;52.982;6.658;2024-03-23T09:27:48;27.23;;;5.10;;
58864;SDS011;45702;52.982;6.658;2024-03-23T09:30:14;22.48;;;4.47;;
58864;SDS011;45702;52.982;6.658;2024-03-23T09:32:43;27.25;;;5.30;;
58864;SDS011;45702;52.982;6.658;2024-03-23T09:35:10;24.23;;;4.75;;
58864;SDS011;45702;52.982;6.658;2024-03-23T09:37:37;29.35;;;4.55;;
58864;SDS011;45702;52.982;6.658;2024-03-23T09:40:10;20.95;;;4.40;;
58864;SDS011;45702;52.982;6.658;2024-03-23T09:42:36;24.85;;;4.80;;
58864;SDS011;45702;52.982;6.658;2024-03-23T09:45:05;22.20;;;4.47;;
58864;SDS011;45702;52.982;6.658;2024-03-23T09:49:57;29.58;;;4.88;;
58864;SDS011;45702;52.982;6.658;2024-03-23T09:52:23;23.15;;;4.93;;
58864;SDS011;45702;52.982;6.658;2024-03-23T09:54:49;28.27;;;4.88;;
58864;SDS011;45702;52.982;6.658;2024-03-23T09:57:16;20.30;;;4.50;;
58864;SDS011;45702;52.982;6.658;2024-03-23T09:59:42;23.50;;;5.18;;
58864;SDS011;45702;52.982;6.658;2024-03-23T10:02:08;23.27;;;4.47;;
58864;SDS011;45702;52.982;6.658;2024-03-23T10:04:39;20.73;;;4.97;;
58864;SDS011;45702;52.982;6.658;2024-03-23T10:09:38;23.05;;;4.38;;
58864;SDS011;45702;52.982;6.658;2024-03-23T10:12:10;29.92;;;4.50;;
58864;SDS011;45702;52.982;6.658;2024-03-23T10:14:40;23.85;;;4.93;;
58864;SDS011;45702;52.982;6.658;2024-03-23T10:17:13;27.63;;;4.63;;
58864;SDS011;45702;52.982;6.658;2024-03-23T10:19:40;19.40;;;4.28;;
58864;SDS011;45702;52.982;6.658;2024-03-23T10:22:07;22.38;;;4.05;;
58864;SDS011;45702;52.982;6.658;2024-03-23T10:24:34;21.42;;;4.30;;
58864;SDS011;45702;52.982;6.658;2024-03-23T10:27:00;22.38;;;4.13;;
58864;SDS011;45702;52.982;6.658;2024-03-23T10:29:26;20.63;;;3.97;;
58864;SDS011;45702;52.982;6.658;2024-03-23T10:31:53;17.13;;;4.03;;
58864;SDS011;45702;52.982;6.658;2024-03-23T10:34:25;13.20;;;3.42;;
58864;SDS011;45702;52.982;6.658;2024-03-23T10:36:55;16.92;;;3.45;;
58864;SDS011;45702;52.982;6.658;2024-03-23T10:39:22;17.58;;;3.42;;
58864;SDS011;45702;52.982;6.658;2024-03-23T10:41:49;19.83;;;2.80;;
58864;SDS011;45702;52.982;6.658;2024-03-23T10:44:19;17.45;;;3.17;;
58864;SDS011;45702;52.982;6.658;2024-03-23T10:46:46;11.05;;;3.22;;
58864;SDS011;45702;52.982;6.658;2024-03-23T10:49:12;16.90;;;3.30;;
58864;SDS011;45702;52.982;6.658;2024-03-23T10:51:38;28.65;;;3.63;;
58864;SDS011;45702;52.982;6.658;2024-03-23T10:54:04;10.73;;;2.83;;
58864;SDS011;45702;52.982;6.658;2024-03-23T10:56:31;22.63;;;3.30;;
58864;SDS011;45702;52.982;6.658;2024-03-23T10:58:59;15.93;;;3.05;;
58864;SDS011;45702;52.982;6.658;2024-03-23T11:01:28;7.78;;;2.30;;
58864;SDS011;45702;52.982;6.658;2024-03-23T11:03:54;10.52;;;2.10;;
58864;SDS011;45702;52.982;6.658;2024-03-23T11:09:01;13.05;;;1.90;;
58864;SDS011;45702;52.982;6.658;2024-03-23T11:11:27;5.60;;;1.58;;
58864;SDS011;45702;52.982;6.658;2024-03-23T11:13:56;6.00;;;1.63;;
58864;SDS011;45702;52.982;6.658;2024-03-23T11:16:23;9.40;;;1.85;;
58864;SDS011;45702;52.982;6.658;2024-03-23T11:18:49;11.15;;;1.95;;
58864;SDS011;45702;52.982;6.658;2024-03-23T11:24:15;10.85;;;2.30;;
58864;SDS011;45702;52.982;6.658;2024-03-23T11:26:42;7.15;;;2.17;;
58864;SDS011;45702;52.982;6.658;2024-03-23T11:29:11;10.88;;;2.83;;
58864;SDS011;45702;52.982;6.658;2024-03-23T11:31:37;10.75;;;2.80;;
58864;SDS011;45702;52.982;6.658;2024-03-23T11:34:04;11.50;;;2.47;;
58864;SDS011;45702;52.982;6.658;2024-03-23T11:36:31;8.60;;;2.30;;
58864;SDS011;45702;52.982;6.658;2024-03-23T11:38:57;12.00;;;2.53;;
58864;SDS011;45702;52.982;6.658;2024-03-23T11:41:24;12.70;;;3.00;;
58864;SDS011;45702;52.982;6.658;2024-03-23T11:43:50;7.13;;;2.53;;
58864;SDS011;45702;52.982;6.658;2024-03-23T11:46:23;7.90;;;2.10;;
58864;SDS011;45702;52.982;6.658;2024-03-23T11:48:50;9.95;;;2.00;;
58864;SDS011;45702;52.982;6.658;2024-03-23T11:51:16;10.80;;;2.08;;
58864;SDS011;45702;52.982;6.658;2024-03-23T11:53:43;13.88;;;2.13;;
58864;SDS011;45702;52.982;6.658;2024-03-23T11:56:09;10.73;;;2.33;;
58864;SDS011;45702;52.982;6.658;2024-03-23T11:58:35;11.70;;;2.15;;
58864;SDS011;45702;52.982;6.658;2024-03-23T12:01:02;10.90;;;2.10;;
58864;SDS011;45702;52.982;6.658;2024-03-23T12:03:29;13.48;;;2.42;;
58864;SDS011;45702;52.982;6.658;2024-03-23T12:05:56;16.65;;;2.58;;
58864;SDS011;45702;52.982;6.658;2024-03-23T12:08:29;9.43;;;2.10;;
58864;SDS011;45702;52.982;6.658;2024-03-23T12:11:11;8.50;;;1.60;;
58864;SDS011;45702;52.982;6.658;2024-03-23T12:13:38;10.23;;;1.70;;
58864;SDS011;45702;52.982;6.658;2024-03-23T12:16:10;10.45;;;1.90;;
58864;SDS011;45702;52.982;6.658;2024-03-23T12:18:40;14.57;;;2.13;;
58864;SDS011;45702;52.982;6.658;2024-03-23T12:21:06;8.88;;;1.67;;
58864;SDS011;45702;52.982;6.658;2024-03-23T12:23:32;8.10;;;1.88;;
58864;SDS011;45702;52.982;6.658;2024-03-23T12:25:59;4.93;;;1.50;;
58864;SDS011;45702;52.982;6.658;2024-03-23T12:28:25;8.00;;;1.52;;
58864;SDS011;45702;52.982;6.658;2024-03-23T12:30:51;5.47;;;1.25;;
58864;SDS011;45702;52.982;6.658;2024-03-23T12:33:19;5.43;;;1.42;;
58864;SDS011;45702;52.982;6.658;2024-03-23T12:35:45;5.97;;;1.48;;
58864;SDS011;45702;52.982;6.658;2024-03-23T12:38:11;10.25;;;1.90;;
58864;SDS011;45702;52.982;6.658;2024-03-23T12:40:37;8.48;;;2.10;;
58864;SDS011;45702;52.982;6.658;2024-03-23T12:43:03;12.73;;;2.55;;
58864;SDS011;45702;52.982;6.658;2024-03-23T12:45:29;17.27;;;3.42;;
58864;SDS011;45702;52.982;6.658;2024-03-23T12:47:55;14.82;;;3.03;;
58864;SDS011;45702;52.982;6.658;2024-03-23T12:50:21;15.73;;;2.97;;
58864;SDS011;45702;52.982;6.658;2024-03-23T12:52:47;18.58;;;3.22;;
58864;SDS011;45702;52.982;6.658;2024-03-23T12:55:13;21.67;;;3.50;;
58864;SDS011;45702;52.982;6.658;2024-03-23T12:57:39;12.13;;;3.22;;
58864;SDS011;45702;52.982;6.658;2024-03-23T13:00:08;16.30;;;3.05;;
58864;SDS011;45702;52.982;6.658;2024-03-23T13:02:38;15.80;;;2.88;;
58864;SDS011;45702;52.982;6.658;2024-03-23T13:05:04;12.65;;;2.72;;
58864;SDS011;45702;52.982;6.658;2024-03-23T13:07:31;17.08;;;2.88;;
58864;SDS011;45702;52.982;6.658;2024-03-23T13:09:57;15.20;;;2.70;;
58864;SDS011;45702;52.982;6.658;2024-03-23T13:12:23;17.23;;;2.83;;
58864;SDS011;45702;52.982;6.658;2024-03-23T13:14:49;17.42;;;2.83;;
58864;SDS011;45702;52.982;6.658;2024-03-23T13:17:15;13.63;;;3.03;;
58864;SDS011;45702;52.982;6.658;2024-03-23T13:19:41;16.17;;;3.60;;
58864;SDS011;45702;52.982;6.658;2024-03-23T13:22:07;13.98;;;3.13;;
58864;SDS011;45702;52.982;6.658;2024-03-23T13:24:36;13.77;;;2.90;;
58864;SDS011;45702;52.982;6.658;2024-03-23T13:27:03;16.65;;;3.22;;
58864;SDS011;45702;52.982;6.658;2024-03-23T13:29:31;24.08;;;3.53;;
58864;SDS011;45702;52.982;6.658;2024-03-23T13:31:57;18.30;;;3.50;;
58864;SDS011;45702;52.982;6.658;2024-03-23T13:34:23;16.48;;;3.33;;
58864;SDS011;45702;52.982;6.658;2024-03-23T13:36:49;16.73;;;3.30;;
58864;SDS011;45702;52.982;6.658;2024-03-23T13:39:15;12.50;;;3.20;;
58864;SDS011;45702;52.982;6.658;2024-03-23T13:41:42;18.30;;;3.63;;
58864;SDS011;45702;52.982;6.658;2024-03-23T13:44:09;15.27;;;3.35;;
58864;SDS011;45702;52.982;6.658;2024-03-23T13:46:36;14.35;;;2.85;;
58864;SDS011;45702;52.982;6.658;2024-03-23T13:49:02;16.63;;;3.42;;
58864;SDS011;45702;52.982;6.658;2024-03-23T13:51:29;18.10;;;3.55;;
58864;SDS011;45702;52.982;6.658;2024-03-23T13:53:55;14.00;;;3.50;;
58864;SDS011;45702;52.982;6.658;2024-03-23T13:56:25;15.23;;;3.03;;
58864;SDS011;45702;52.982;6.658;2024-03-23T13:58:51;16.35;;;3.08;;
58864;SDS011;45702;52.982;6.658;2024-03-23T14:01:17;9.82;;;2.05;;
58864;SDS011;45702;52.982;6.658;2024-03-23T14:03:43;14.70;;;2.10;;
58864;SDS011;45702;52.982;6.658;2024-03-23T14:06:09;13.50;;;2.10;;
58864;SDS011;45702;52.982;6.658;2024-03-23T14:08:36;13.55;;;2.47;;
58864;SDS011;45702;52.982;6.658;2024-03-23T14:11:07;11.95;;;2.42;;
58864;SDS011;45702;52.982;6.658;2024-03-23T14:13:36;16.30;;;2.88;;
58864;SDS011;45702;52.982;6.658;2024-03-23T14:16:02;11.57;;;2.63;;
58864;SDS011;45702;52.982;6.658;2024-03-23T14:18:29;10.80;;;2.40;;
58864;SDS011;45702;52.982;6.658;2024-03-23T14:20:59;10.23;;;2.00;;
58864;SDS011;45702;52.982;6.658;2024-03-23T14:23:26;9.38;;;2.10;;
58864;SDS011;45702;52.982;6.658;2024-03-23T14:25:53;12.10;;;2.20;;
58864;SDS011;45702;52.982;6.658;2024-03-23T14:28:19;10.02;;;2.08;;
58864;SDS011;45702;52.982;6.658;2024-03-23T14:30:47;12.50;;;2.05;;
58864;SDS011;45702;52.982;6.658;2024-03-23T14:33:13;13.48;;;2.20;;
58864;SDS011;45702;52.982;6.658;2024-03-23T14:35:39;11.02;;;2.35;;
58864;SDS011;45702;52.982;6.658;2024-03-23T14:38:05;11.90;;;2.33;;
58864;SDS011;45702;52.982;6.658;2024-03-23T14:40:31;18.90;;;2.70;;
58864;SDS011;45702;52.982;6.658;2024-03-23T14:42:57;12.05;;;2.50;;
58864;SDS011;45702;52.982;6.658;2024-03-23T14:45:23;14.80;;;3.08;;
58864;SDS011;45702;52.982;6.658;2024-03-23T14:47:52;14.68;;;2.80;;
58864;SDS011;45702;52.982;6.658;2024-03-23T14:50:19;13.95;;;2.85;;
58864;SDS011;45702;52.982;6.658;2024-03-23T14:52:46;11.85;;;2.50;;
58864;SDS011;45702;52.982;6.658;2024-03-23T14:55:12;19.77;;;3.20;;
58864;SDS011;45702;52.982;6.658;2024-03-23T14:57:39;11.45;;;2.25;;
58864;SDS011;45702;52.982;6.658;2024-03-23T15:00:08;9.23;;;2.10;;
58864;SDS011;45702;52.982;6.658;2024-03-23T15:02:37;8.43;;;1.60;;
58864;SDS011;45702;52.982;6.658;2024-03-23T15:05:04;11.38;;;2.05;;
58864;SDS011;45702;52.982;6.658;2024-03-23T15:07:30;7.85;;;1.90;;
58864;SDS011;45702;52.982;6.658;2024-03-23T15:09:56;8.02;;;1.70;;
58864;SDS011;45702;52.982;6.658;2024-03-23T15:12:23;11.40;;;1.83;;
58864;SDS011;45702;52.982;6.658;2024-03-23T15:14:49;10.73;;;1.75;;
58864;SDS011;45702;52.982;6.658;2024-03-23T15:17:15;7.57;;;1.85;;
58864;SDS011;45702;52.982;6.658;2024-03-23T15:19:41;6.03;;;1.85;;
58864;SDS011;45702;52.982;6.658;2024-03-23T15:22:08;9.43;;;1.70;;
58864;SDS011;45702;52.982;6.658;2024-03-23T15:24:35;11.07;;;1.70;;
58864;SDS011;45702;52.982;6.658;2024-03-23T15:27:02;7.65;;;2.20;;
58864;SDS011;45702;52.982;6.658;2024-03-23T15:29:28;8.27;;;2.08;;
58864;SDS011;45702;52.982;6.658;2024-03-23T15:31:55;10.10;;;1.83;;
58864;SDS011;45702;52.982;6.658;2024-03-23T15:34:21;10.50;;;2.20;;
58864;SDS011;45702;52.982;6.658;2024-03-23T15:36:48;11.13;;;1.90;;
58864;SDS011;45702;52.982;6.658;2024-03-23T15:39:16;12.15;;;2.30;;